sensor_id;sensor_type;location;lat;lon;timestamp;P1;durP1;ratioP1;P2;durP2;ratioP2
2035;SDS011;23642;42.658;23.350;2022-10-28T00:01:26;96.03;;;89.73;;
2035;SDS011;23642;42.658;23.350;2022-10-28T00:03:53;92.93;;;86.33;;
2035;SDS011;23642;42.658;23.350;2022-10-28T00:06:24;93.47;;;87.03;;
2035;SDS011;23642;42.658;23.350;2022-10-28T00:08:52;94.43;;;88.13;;
2035;SDS011;23642;42.658;23.350;2022-10-28T00:11:20;92.40;;;86.20;;
2035;SDS011;23642;42.658;23.350;2022-10-28T00:13:48;92.67;;;86.47;;
2035;SDS011;23642;42.658;23.350;2022-10-28T00:16:18;94.93;;;88.13;;
2035;SDS011;23642;42.658;23.350;2022-10-28T00:18:46;90.03;;;84.13;;
2035;SDS011;23642;42.658;23.350;2022-10-28T00:21:16;88.37;;;82.57;;
2035;SDS011;23642;42.658;23.350;2022-10-28T00:23:46;93.20;;;87.10;;
2035;SDS011;23642;42.658;23.350;2022-10-28T00:26:13;91.07;;;85.17;;
2035;SDS011;23642;42.658;23.350;2022-10-28T00:28:42;92.07;;;85.27;;
2035;SDS011;23642;42.658;23.350;2022-10-28T00:31:10;91.03;;;84.80;;
2035;SDS011;23642;42.658;23.350;2022-10-28T00:33:38;92.10;;;86.10;;
2035;SDS011;23642;42.658;23.350;2022-10-28T00:36:06;92.87;;;86.70;;
2035;SDS011;23642;42.658;23.350;2022-10-28T00:38:37;93.90;;;87.07;;
2035;SDS011;23642;42.658;23.350;2022-10-28T00:41:06;89.67;;;83.67;;
2035;SDS011;23642;42.658;23.350;2022-10-28T00:43:38;91.37;;;85.47;;
2035;SDS011;23642;42.658;23.350;2022-10-28T00:46:12;89.73;;;83.70;;
2035;SDS011;23642;42.658;23.350;2022-10-28T00:48:44;90.10;;;83.80;;
2035;SDS011;23642;42.658;23.350;2022-10-28T00:51:14;87.70;;;81.90;;
2035;SDS011;23642;42.658;23.350;2022-10-28T00:53:46;89.60;;;84.00;;
2035;SDS011;23642;42.658;23.350;2022-10-28T00:56:17;88.57;;;82.83;;
2035;SDS011;23642;42.658;23.350;2022-10-28T00:58:45;86.63;;;81.03;;
2035;SDS011;23642;42.658;23.350;2022-10-28T01:01:14;85.37;;;79.77;;
2035;SDS011;23642;42.658;23.350;2022-10-28T01:03:40;88.53;;;82.77;;
2035;SDS011;23642;42.658;23.350;2022-10-28T01:06:07;85.70;;;80.10;;
2035;SDS011;23642;42.658;23.350;2022-10-28T01:08:35;88.73;;;82.63;;
2035;SDS011;23642;42.658;23.350;2022-10-28T01:14:05;91.07;;;84.77;;
2035;SDS011;23642;42.658;23.350;2022-10-28T01:16:47;89.77;;;83.23;;
2035;SDS011;23642;42.658;23.350;2022-10-28T01:19:32;90.13;;;84.10;;
2035;SDS011;23642;42.658;23.350;2022-10-28T01:22:13;87.90;;;82.17;;
2035;SDS011;23642;42.658;23.350;2022-10-28T01:24:54;88.30;;;82.17;;
2035;SDS011;23642;42.658;23.350;2022-10-28T01:30:28;91.80;;;85.90;;
2035;SDS011;23642;42.658;23.350;2022-10-28T01:33:08;90.53;;;84.23;;
2035;SDS011;23642;42.658;23.350;2022-10-28T01:35:45;85.10;;;79.23;;
2035;SDS011;23642;42.658;23.350;2022-10-28T01:38:21;87.03;;;81.03;;
2035;SDS011;23642;42.658;23.350;2022-10-28T01:40:57;86.77;;;81.00;;
2035;SDS011;23642;42.658;23.350;2022-10-28T01:43:35;88.60;;;82.60;;
2035;SDS011;23642;42.658;23.350;2022-10-28T01:46:11;87.47;;;81.70;;
2035;SDS011;23642;42.658;23.350;2022-10-28T01:48:45;86.30;;;80.17;;
2035;SDS011;23642;42.658;23.350;2022-10-28T01:51:17;88.50;;;82.53;;
2035;SDS011;23642;42.658;23.350;2022-10-28T01:53:48;85.73;;;80.00;;
2035;SDS011;23642;42.658;23.350;2022-10-28T01:56:22;88.27;;;82.37;;
2035;SDS011;23642;42.658;23.350;2022-10-28T01:58:53;86.13;;;79.97;;
2035;SDS011;23642;42.658;23.350;2022-10-28T02:01:24;84.57;;;78.73;;
2035;SDS011;23642;42.658;23.350;2022-10-28T02:03:53;85.20;;;79.50;;
2035;SDS011;23642;42.658;23.350;2022-10-28T02:06:22;84.93;;;79.00;;
2035;SDS011;23642;42.658;23.350;2022-10-28T02:08:55;85.37;;;79.43;;
2035;SDS011;23642;42.658;23.350;2022-10-28T02:11:38;85.97;;;79.97;;
2035;SDS011;23642;42.658;23.350;2022-10-28T02:14:29;84.50;;;78.73;;
2035;SDS011;23642;42.658;23.350;2022-10-28T02:17:06;87.10;;;81.23;;
2035;SDS011;23642;42.658;23.350;2022-10-28T02:19:45;86.10;;;80.40;;
2035;SDS011;23642;42.658;23.350;2022-10-28T02:22:17;85.30;;;79.60;;
2035;SDS011;23642;42.658;23.350;2022-10-28T02:24:49;83.27;;;77.73;;
2035;SDS011;23642;42.658;23.350;2022-10-28T02:27:27;84.90;;;79.20;;
2035;SDS011;23642;42.658;23.350;2022-10-28T02:29:59;81.07;;;75.37;;
2035;SDS011;23642;42.658;23.350;2022-10-28T02:32:31;79.00;;;73.50;;
2035;SDS011;23642;42.658;23.350;2022-10-28T02:35:04;82.33;;;76.73;;
2035;SDS011;23642;42.658;23.350;2022-10-28T02:37:34;84.23;;;78.50;;
2035;SDS011;23642;42.658;23.350;2022-10-28T02:40:05;82.23;;;76.63;;
2035;SDS011;23642;42.658;23.350;2022-10-28T02:42:38;80.00;;;74.57;;
2035;SDS011;23642;42.658;23.350;2022-10-28T02:45:10;79.50;;;73.73;;
2035;SDS011;23642;42.658;23.350;2022-10-28T02:47:41;80.40;;;74.80;;
2035;SDS011;23642;42.658;23.350;2022-10-28T02:50:13;78.53;;;73.00;;
2035;SDS011;23642;42.658;23.350;2022-10-28T02:52:43;78.97;;;73.73;;
2035;SDS011;23642;42.658;23.350;2022-10-28T02:55:14;78.27;;;72.87;;
2035;SDS011;23642;42.658;23.350;2022-10-28T02:57:43;80.47;;;75.00;;
2035;SDS011;23642;42.658;23.350;2022-10-28T03:00:14;79.93;;;74.53;;
2035;SDS011;23642;42.658;23.350;2022-10-28T03:02:43;79.70;;;74.10;;
2035;SDS011;23642;42.658;23.350;2022-10-28T03:05:13;79.43;;;73.93;;
2035;SDS011;23642;42.658;23.350;2022-10-28T03:07:41;80.70;;;74.90;;
2035;SDS011;23642;42.658;23.350;2022-10-28T03:10:08;79.23;;;73.80;;
2035;SDS011;23642;42.658;23.350;2022-10-28T03:12:35;79.63;;;74.00;;
2035;SDS011;23642;42.658;23.350;2022-10-28T03:15:04;82.27;;;76.10;;
2035;SDS011;23642;42.658;23.350;2022-10-28T03:17:31;80.60;;;74.77;;
2035;SDS011;23642;42.658;23.350;2022-10-28T03:19:58;79.47;;;73.83;;
2035;SDS011;23642;42.658;23.350;2022-10-28T03:22:26;80.70;;;75.00;;
2035;SDS011;23642;42.658;23.350;2022-10-28T03:24:52;80.93;;;75.10;;
2035;SDS011;23642;42.658;23.350;2022-10-28T03:27:19;81.30;;;75.33;;
2035;SDS011;23642;42.658;23.350;2022-10-28T03:29:46;81.93;;;76.07;;
2035;SDS011;23642;42.658;23.350;2022-10-28T03:32:13;79.87;;;74.47;;
2035;SDS011;23642;42.658;23.350;2022-10-28T03:34:39;77.87;;;72.53;;
2035;SDS011;23642;42.658;23.350;2022-10-28T03:37:06;82.50;;;76.20;;
2035;SDS011;23642;42.658;23.350;2022-10-28T03:39:34;79.53;;;73.73;;
2035;SDS011;23642;42.658;23.350;2022-10-28T03:42:01;78.97;;;73.17;;
2035;SDS011;23642;42.658;23.350;2022-10-28T03:44:27;80.83;;;74.73;;
2035;SDS011;23642;42.658;23.350;2022-10-28T03:46:54;85.20;;;78.70;;
2035;SDS011;23642;42.658;23.350;2022-10-28T03:49:21;80.77;;;74.63;;
2035;SDS011;23642;42.658;23.350;2022-10-28T03:51:48;82.67;;;76.47;;
2035;SDS011;23642;42.658;23.350;2022-10-28T03:54:15;82.80;;;77.00;;
2035;SDS011;23642;42.658;23.350;2022-10-28T03:56:43;82.17;;;76.33;;
2035;SDS011;23642;42.658;23.350;2022-10-28T03:59:10;83.53;;;77.43;;
2035;SDS011;23642;42.658;23.350;2022-10-28T04:01:37;80.50;;;74.80;;
2035;SDS011;23642;42.658;23.350;2022-10-28T04:04:03;84.23;;;77.23;;
2035;SDS011;23642;42.658;23.350;2022-10-28T04:06:30;83.87;;;76.97;;
2035;SDS011;23642;42.658;23.350;2022-10-28T04:08:57;83.90;;;77.70;;
2035;SDS011;23642;42.658;23.350;2022-10-28T04:11:24;82.60;;;76.23;;
2035;SDS011;23642;42.658;23.350;2022-10-28T04:13:52;85.97;;;79.50;;
2035;SDS011;23642;42.658;23.350;2022-10-28T04:16:19;87.77;;;79.47;;
2035;SDS011;23642;42.658;23.350;2022-10-28T04:18:46;82.43;;;76.63;;
2035;SDS011;23642;42.658;23.350;2022-10-28T04:21:12;84.60;;;78.70;;
2035;SDS011;23642;42.658;23.350;2022-10-28T04:23:39;83.33;;;77.53;;
2035;SDS011;23642;42.658;23.350;2022-10-28T04:26:06;83.73;;;77.63;;
2035;SDS011;23642;42.658;23.350;2022-10-28T04:28:33;86.97;;;80.33;;
2035;SDS011;23642;42.658;23.350;2022-10-28T04:31:01;82.70;;;76.50;;
2035;SDS011;23642;42.658;23.350;2022-10-28T04:33:27;82.60;;;76.10;;
2035;SDS011;23642;42.658;23.350;2022-10-28T04:35:54;82.40;;;75.90;;
2035;SDS011;23642;42.658;23.350;2022-10-28T04:38:21;81.67;;;76.03;;
2035;SDS011;23642;42.658;23.350;2022-10-28T04:40:48;82.13;;;76.43;;
2035;SDS011;23642;42.658;23.350;2022-10-28T04:43:15;82.13;;;75.97;;
2035;SDS011;23642;42.658;23.350;2022-10-28T04:45:42;84.70;;;78.10;;
2035;SDS011;23642;42.658;23.350;2022-10-28T04:48:13;84.30;;;77.67;;
2035;SDS011;23642;42.658;23.350;2022-10-28T04:50:40;86.70;;;80.00;;
2035;SDS011;23642;42.658;23.350;2022-10-28T04:53:07;84.80;;;78.13;;
2035;SDS011;23642;42.658;23.350;2022-10-28T04:55:34;88.63;;;81.20;;
2035;SDS011;23642;42.658;23.350;2022-10-28T04:58:01;87.93;;;80.57;;
2035;SDS011;23642;42.658;23.350;2022-10-28T05:00:29;89.53;;;81.83;;
2035;SDS011;23642;42.658;23.350;2022-10-28T05:02:59;88.87;;;82.00;;
2035;SDS011;23642;42.658;23.350;2022-10-28T05:05:29;92.97;;;85.70;;
2035;SDS011;23642;42.658;23.350;2022-10-28T05:07:55;96.70;;;86.50;;
2035;SDS011;23642;42.658;23.350;2022-10-28T05:10:22;98.60;;;90.80;;
2035;SDS011;23642;42.658;23.350;2022-10-28T05:12:49;97.03;;;88.20;;
2035;SDS011;23642;42.658;23.350;2022-10-28T05:15:16;97.37;;;89.23;;
2035;SDS011;23642;42.658;23.350;2022-10-28T05:17:43;101.90;;;93.70;;
2035;SDS011;23642;42.658;23.350;2022-10-28T05:20:11;96.03;;;86.97;;
2035;SDS011;23642;42.658;23.350;2022-10-28T05:22:45;98.00;;;89.70;;
2035;SDS011;23642;42.658;23.350;2022-10-28T05:25:12;91.70;;;84.43;;
2035;SDS011;23642;42.658;23.350;2022-10-28T05:27:39;92.80;;;85.40;;
2035;SDS011;23642;42.658;23.350;2022-10-28T05:30:15;88.70;;;82.10;;
2035;SDS011;23642;42.658;23.350;2022-10-28T05:32:42;87.57;;;80.80;;
2035;SDS011;23642;42.658;23.350;2022-10-28T05:38:20;87.83;;;80.77;;
2035;SDS011;23642;42.658;23.350;2022-10-28T05:40:46;90.40;;;83.30;;
2035;SDS011;23642;42.658;23.350;2022-10-28T05:43:13;89.27;;;82.47;;
2035;SDS011;23642;42.658;23.350;2022-10-28T05:45:40;91.27;;;83.87;;
2035;SDS011;23642;42.658;23.350;2022-10-28T05:48:08;93.87;;;86.87;;
2035;SDS011;23642;42.658;23.350;2022-10-28T05:50:35;95.97;;;88.20;;
2035;SDS011;23642;42.658;23.350;2022-10-28T05:53:01;93.97;;;87.37;;
2035;SDS011;23642;42.658;23.350;2022-10-28T05:55:30;98.50;;;90.80;;
2035;SDS011;23642;42.658;23.350;2022-10-28T05:57:56;99.20;;;91.90;;
2035;SDS011;23642;42.658;23.350;2022-10-28T06:00:24;100.93;;;92.53;;
2035;SDS011;23642;42.658;23.350;2022-10-28T06:02:51;101.30;;;93.87;;
2035;SDS011;23642;42.658;23.350;2022-10-28T06:05:18;101.33;;;93.57;;
2035;SDS011;23642;42.658;23.350;2022-10-28T06:07:45;103.47;;;95.40;;
2035;SDS011;23642;42.658;23.350;2022-10-28T06:10:40;102.73;;;95.40;;
2035;SDS011;23642;42.658;23.350;2022-10-28T06:13:07;102.80;;;94.67;;
2035;SDS011;23642;42.658;23.350;2022-10-28T06:15:34;103.23;;;96.00;;
2035;SDS011;23642;42.658;23.350;2022-10-28T06:18:01;105.07;;;97.53;;
2035;SDS011;23642;42.658;23.350;2022-10-28T06:20:28;103.33;;;96.00;;
2035;SDS011;23642;42.658;23.350;2022-10-28T06:22:55;101.37;;;94.07;;
2035;SDS011;23642;42.658;23.350;2022-10-28T06:25:22;103.87;;;95.27;;
2035;SDS011;23642;42.658;23.350;2022-10-28T06:27:54;108.33;;;99.77;;
2035;SDS011;23642;42.658;23.350;2022-10-28T06:30:26;107.50;;;99.60;;
2035;SDS011;23642;42.658;23.350;2022-10-28T06:32:55;105.97;;;98.67;;
2035;SDS011;23642;42.658;23.350;2022-10-28T06:35:24;107.27;;;99.00;;
2035;SDS011;23642;42.658;23.350;2022-10-28T06:37:52;109.40;;;101.43;;
2035;SDS011;23642;42.658;23.350;2022-10-28T06:40:19;110.30;;;101.63;;
2035;SDS011;23642;42.658;23.350;2022-10-28T06:42:46;110.87;;;102.73;;
2035;SDS011;23642;42.658;23.350;2022-10-28T06:45:14;107.80;;;100.10;;
2035;SDS011;23642;42.658;23.350;2022-10-28T06:47:41;107.97;;;99.10;;
2035;SDS011;23642;42.658;23.350;2022-10-28T06:50:08;106.33;;;98.60;;
2035;SDS011;23642;42.658;23.350;2022-10-28T06:52:35;108.60;;;101.00;;
2035;SDS011;23642;42.658;23.350;2022-10-28T06:55:02;107.13;;;99.20;;
2035;SDS011;23642;42.658;23.350;2022-10-28T06:57:29;108.83;;;101.20;;
2035;SDS011;23642;42.658;23.350;2022-10-28T06:59:56;109.40;;;100.57;;
2035;SDS011;23642;42.658;23.350;2022-10-28T07:02:24;105.47;;;98.23;;
2035;SDS011;23642;42.658;23.350;2022-10-28T07:04:51;107.20;;;99.70;;
2035;SDS011;23642;42.658;23.350;2022-10-28T07:07:21;107.53;;;99.40;;
2035;SDS011;23642;42.658;23.350;2022-10-28T07:09:50;107.00;;;98.77;;
2035;SDS011;23642;42.658;23.350;2022-10-28T07:12:16;104.33;;;97.23;;
2035;SDS011;23642;42.658;23.350;2022-10-28T07:14:43;103.90;;;96.70;;
2035;SDS011;23642;42.658;23.350;2022-10-28T07:17:10;106.47;;;98.60;;
2035;SDS011;23642;42.658;23.350;2022-10-28T07:20:04;106.50;;;99.00;;
2035;SDS011;23642;42.658;23.350;2022-10-28T07:22:53;105.77;;;98.07;;
2035;SDS011;23642;42.658;23.350;2022-10-28T07:25:22;105.37;;;97.93;;
2035;SDS011;23642;42.658;23.350;2022-10-28T07:27:52;105.33;;;97.73;;
2035;SDS011;23642;42.658;23.350;2022-10-28T07:30:19;103.10;;;95.77;;
2035;SDS011;23642;42.658;23.350;2022-10-28T07:32:46;105.17;;;97.70;;
2035;SDS011;23642;42.658;23.350;2022-10-28T07:35:16;106.73;;;98.83;;
2035;SDS011;23642;42.658;23.350;2022-10-28T07:37:42;105.23;;;98.10;;
2035;SDS011;23642;42.658;23.350;2022-10-28T07:40:10;102.47;;;94.37;;
2035;SDS011;23642;42.658;23.350;2022-10-28T07:45:30;112.80;;;103.50;;
2035;SDS011;23642;42.658;23.350;2022-10-28T07:47:57;108.40;;;100.80;;
2035;SDS011;23642;42.658;23.350;2022-10-28T07:50:25;105.93;;;98.43;;
2035;SDS011;23642;42.658;23.350;2022-10-28T07:52:53;106.67;;;98.70;;
2035;SDS011;23642;42.658;23.350;2022-10-28T07:55:20;106.07;;;98.47;;
2035;SDS011;23642;42.658;23.350;2022-10-28T07:57:47;109.90;;;101.63;;
2035;SDS011;23642;42.658;23.350;2022-10-28T08:00:14;109.87;;;100.93;;
2035;SDS011;23642;42.658;23.350;2022-10-28T08:02:52;107.73;;;99.33;;
2035;SDS011;23642;42.658;23.350;2022-10-28T08:05:19;109.27;;;100.90;;
2035;SDS011;23642;42.658;23.350;2022-10-28T08:07:48;111.33;;;103.43;;
2035;SDS011;23642;42.658;23.350;2022-10-28T08:10:15;112.83;;;104.27;;
2035;SDS011;23642;42.658;23.350;2022-10-28T08:12:44;113.60;;;105.20;;
2035;SDS011;23642;42.658;23.350;2022-10-28T08:15:16;114.23;;;104.83;;
2035;SDS011;23642;42.658;23.350;2022-10-28T08:17:49;114.67;;;105.93;;
2035;SDS011;23642;42.658;23.350;2022-10-28T08:20:19;110.67;;;102.80;;
2035;SDS011;23642;42.658;23.350;2022-10-28T08:22:48;112.67;;;104.27;;
2035;SDS011;23642;42.658;23.350;2022-10-28T08:25:15;113.50;;;105.30;;
2035;SDS011;23642;42.658;23.350;2022-10-28T08:27:42;114.63;;;106.00;;
2035;SDS011;23642;42.658;23.350;2022-10-28T08:30:09;112.50;;;104.40;;
2035;SDS011;23642;42.658;23.350;2022-10-28T08:32:36;115.00;;;106.60;;
2035;SDS011;23642;42.658;23.350;2022-10-28T08:35:13;113.63;;;105.50;;
2035;SDS011;23642;42.658;23.350;2022-10-28T08:37:52;117.43;;;107.77;;
2035;SDS011;23642;42.658;23.350;2022-10-28T08:43:34;114.40;;;106.20;;
2035;SDS011;23642;42.658;23.350;2022-10-28T08:46:10;113.37;;;105.40;;
2035;SDS011;23642;42.658;23.350;2022-10-28T08:48:40;111.63;;;103.37;;
2035;SDS011;23642;42.658;23.350;2022-10-28T08:51:09;114.73;;;106.73;;
2035;SDS011;23642;42.658;23.350;2022-10-28T08:54:01;114.00;;;105.77;;
2035;SDS011;23642;42.658;23.350;2022-10-28T08:56:45;115.77;;;106.70;;
2035;SDS011;23642;42.658;23.350;2022-10-28T08:59:18;111.90;;;103.57;;
2035;SDS011;23642;42.658;23.350;2022-10-28T09:01:52;109.70;;;101.93;;
2035;SDS011;23642;42.658;23.350;2022-10-28T09:04:25;112.40;;;104.07;;
2035;SDS011;23642;42.658;23.350;2022-10-28T09:07:01;110.27;;;102.27;;
2035;SDS011;23642;42.658;23.350;2022-10-28T09:09:31;108.60;;;101.00;;
2035;SDS011;23642;42.658;23.350;2022-10-28T09:12:10;110.27;;;102.40;;
2035;SDS011;23642;42.658;23.350;2022-10-28T09:14:51;108.17;;;100.47;;
2035;SDS011;23642;42.658;23.350;2022-10-28T09:17:32;106.97;;;99.60;;
2035;SDS011;23642;42.658;23.350;2022-10-28T09:20:10;107.70;;;100.50;;
2035;SDS011;23642;42.658;23.350;2022-10-28T09:22:44;110.67;;;102.57;;
2035;SDS011;23642;42.658;23.350;2022-10-28T09:25:22;110.83;;;103.00;;
2035;SDS011;23642;42.658;23.350;2022-10-28T09:28:05;110.00;;;102.07;;
2035;SDS011;23642;42.658;23.350;2022-10-28T09:30:48;109.97;;;101.90;;
2035;SDS011;23642;42.658;23.350;2022-10-28T09:36:12;109.70;;;101.87;;
2035;SDS011;23642;42.658;23.350;2022-10-28T09:38:42;106.20;;;98.37;;
2035;SDS011;23642;42.658;23.350;2022-10-28T09:41:12;106.47;;;98.97;;
2035;SDS011;23642;42.658;23.350;2022-10-28T09:43:43;109.30;;;101.10;;
2035;SDS011;23642;42.658;23.350;2022-10-28T09:46:16;104.07;;;96.77;;
2035;SDS011;23642;42.658;23.350;2022-10-28T09:48:50;109.30;;;101.57;;
2035;SDS011;23642;42.658;23.350;2022-10-28T09:51:23;108.57;;;100.97;;
2035;SDS011;23642;42.658;23.350;2022-10-28T09:53:57;104.20;;;96.77;;
2035;SDS011;23642;42.658;23.350;2022-10-28T09:56:26;107.63;;;100.20;;
2035;SDS011;23642;42.658;23.350;2022-10-28T09:58:54;107.97;;;99.53;;
2035;SDS011;23642;42.658;23.350;2022-10-28T10:01:24;104.93;;;97.60;;
2035;SDS011;23642;42.658;23.350;2022-10-28T10:03:55;107.17;;;99.60;;
2035;SDS011;23642;42.658;23.350;2022-10-28T10:06:22;106.77;;;99.50;;
2035;SDS011;23642;42.658;23.350;2022-10-28T10:08:53;102.50;;;95.30;;
2035;SDS011;23642;42.658;23.350;2022-10-28T10:11:24;104.30;;;96.67;;
2035;SDS011;23642;42.658;23.350;2022-10-28T10:13:57;103.20;;;96.30;;
2035;SDS011;23642;42.658;23.350;2022-10-28T10:16:33;102.73;;;96.00;;
2035;SDS011;23642;42.658;23.350;2022-10-28T10:19:05;102.40;;;95.33;;
2035;SDS011;23642;42.658;23.350;2022-10-28T10:21:41;100.37;;;93.80;;
2035;SDS011;23642;42.658;23.350;2022-10-28T10:24:28;98.97;;;92.37;;
2035;SDS011;23642;42.658;23.350;2022-10-28T10:26:58;97.83;;;91.53;;
2035;SDS011;23642;42.658;23.350;2022-10-28T10:29:27;102.03;;;94.90;;
2035;SDS011;23642;42.658;23.350;2022-10-28T10:32:02;100.47;;;93.87;;
2035;SDS011;23642;42.658;23.350;2022-10-28T10:34:33;100.00;;;93.30;;
2035;SDS011;23642;42.658;23.350;2022-10-28T10:37:02;98.87;;;92.40;;
2035;SDS011;23642;42.658;23.350;2022-10-28T10:39:32;97.97;;;90.90;;
2035;SDS011;23642;42.658;23.350;2022-10-28T10:42:14;99.33;;;92.60;;
2035;SDS011;23642;42.658;23.350;2022-10-28T10:44:42;97.17;;;90.47;;
2035;SDS011;23642;42.658;23.350;2022-10-28T10:47:15;96.87;;;90.60;;
2035;SDS011;23642;42.658;23.350;2022-10-28T10:49:44;95.27;;;88.87;;
2035;SDS011;23642;42.658;23.350;2022-10-28T10:52:16;96.90;;;90.50;;
2035;SDS011;23642;42.658;23.350;2022-10-28T10:55:00;94.37;;;88.27;;
2035;SDS011;23642;42.658;23.350;2022-10-28T10:57:32;96.93;;;90.50;;
2035;SDS011;23642;42.658;23.350;2022-10-28T11:00:00;98.20;;;91.70;;
2035;SDS011;23642;42.658;23.350;2022-10-28T11:02:27;98.30;;;91.60;;
2035;SDS011;23642;42.658;23.350;2022-10-28T11:04:59;97.50;;;91.00;;
2035;SDS011;23642;42.658;23.350;2022-10-28T11:07:29;97.30;;;91.10;;
2035;SDS011;23642;42.658;23.350;2022-10-28T11:09:57;96.80;;;90.50;;
2035;SDS011;23642;42.658;23.350;2022-10-28T11:12:28;95.27;;;89.23;;
2035;SDS011;23642;42.658;23.350;2022-10-28T11:14:58;97.13;;;90.77;;
2035;SDS011;23642;42.658;23.350;2022-10-28T11:17:26;97.87;;;91.47;;
2035;SDS011;23642;42.658;23.350;2022-10-28T11:19:55;98.60;;;92.00;;
2035;SDS011;23642;42.658;23.350;2022-10-28T11:25:40;98.73;;;92.07;;
2035;SDS011;23642;42.658;23.350;2022-10-28T11:28:15;96.60;;;90.30;;
2035;SDS011;23642;42.658;23.350;2022-10-28T11:30:57;94.70;;;88.23;;
2035;SDS011;23642;42.658;23.350;2022-10-28T11:33:35;96.93;;;90.73;;
2035;SDS011;23642;42.658;23.350;2022-10-28T11:36:14;95.93;;;89.83;;
2035;SDS011;23642;42.658;23.350;2022-10-28T11:38:53;97.90;;;91.07;;
2035;SDS011;23642;42.658;23.350;2022-10-28T11:41:30;97.73;;;91.33;;
2035;SDS011;23642;42.658;23.350;2022-10-28T11:44:13;97.90;;;91.60;;
2035;SDS011;23642;42.658;23.350;2022-10-28T11:46:52;95.03;;;88.93;;
2035;SDS011;23642;42.658;23.350;2022-10-28T11:52:33;96.30;;;90.30;;
2035;SDS011;23642;42.658;23.350;2022-10-28T11:55:15;99.07;;;92.60;;
2035;SDS011;23642;42.658;23.350;2022-10-28T11:57:49;97.30;;;91.20;;
2035;SDS011;23642;42.658;23.350;2022-10-28T12:00:32;94.90;;;88.90;;
2035;SDS011;23642;42.658;23.350;2022-10-28T12:03:14;96.07;;;89.40;;
2035;SDS011;23642;42.658;23.350;2022-10-28T12:05:58;92.13;;;86.03;;
2035;SDS011;23642;42.658;23.350;2022-10-28T12:08:36;97.33;;;91.10;;
2035;SDS011;23642;42.658;23.350;2022-10-28T12:11:20;95.63;;;89.23;;
2035;SDS011;23642;42.658;23.350;2022-10-28T12:13:59;95.90;;;90.00;;
2035;SDS011;23642;42.658;23.350;2022-10-28T12:16:35;94.70;;;88.80;;
2035;SDS011;23642;42.658;23.350;2022-10-28T12:19:10;95.80;;;89.53;;
2035;SDS011;23642;42.658;23.350;2022-10-28T12:21:42;94.93;;;88.97;;
2035;SDS011;23642;42.658;23.350;2022-10-28T12:24:23;97.33;;;90.60;;
2035;SDS011;23642;42.658;23.350;2022-10-28T12:26:55;95.10;;;88.80;;
2035;SDS011;23642;42.658;23.350;2022-10-28T12:29:24;95.27;;;89.10;;
2035;SDS011;23642;42.658;23.350;2022-10-28T12:31:54;94.10;;;88.13;;
2035;SDS011;23642;42.658;23.350;2022-10-28T12:34:28;93.37;;;87.50;;
2035;SDS011;23642;42.658;23.350;2022-10-28T12:37:03;94.23;;;88.23;;
2035;SDS011;23642;42.658;23.350;2022-10-28T12:39:36;95.13;;;89.03;;
2035;SDS011;23642;42.658;23.350;2022-10-28T12:42:09;97.40;;;91.40;;
2035;SDS011;23642;42.658;23.350;2022-10-28T12:44:40;95.13;;;88.80;;
2035;SDS011;23642;42.658;23.350;2022-10-28T12:47:14;98.53;;;91.90;;
2035;SDS011;23642;42.658;23.350;2022-10-28T12:49:49;97.30;;;91.00;;
2035;SDS011;23642;42.658;23.350;2022-10-28T12:52:31;97.27;;;91.17;;
2035;SDS011;23642;42.658;23.350;2022-10-28T12:55:06;95.07;;;89.17;;
2035;SDS011;23642;42.658;23.350;2022-10-28T12:57:43;94.37;;;88.57;;
2035;SDS011;23642;42.658;23.350;2022-10-28T13:00:17;96.87;;;90.73;;
2035;SDS011;23642;42.658;23.350;2022-10-28T13:02:50;94.80;;;88.90;;
2035;SDS011;23642;42.658;23.350;2022-10-28T13:05:26;96.77;;;90.60;;
2035;SDS011;23642;42.658;23.350;2022-10-28T13:08:01;96.67;;;90.77;;
2035;SDS011;23642;42.658;23.350;2022-10-28T13:11:25;94.93;;;89.13;;
2035;SDS011;23642;42.658;23.350;2022-10-28T13:14:04;96.03;;;90.13;;
2035;SDS011;23642;42.658;23.350;2022-10-28T13:16:57;96.50;;;90.43;;
2035;SDS011;23642;42.658;23.350;2022-10-28T13:20:00;96.57;;;90.47;;
2035;SDS011;23642;42.658;23.350;2022-10-28T13:22:44;98.27;;;92.20;;
2035;SDS011;23642;42.658;23.350;2022-10-28T13:25:27;96.03;;;90.03;;
2035;SDS011;23642;42.658;23.350;2022-10-28T13:28:10;96.47;;;90.30;;
2035;SDS011;23642;42.658;23.350;2022-10-28T13:30:50;95.50;;;89.70;;
2035;SDS011;23642;42.658;23.350;2022-10-28T13:33:19;95.03;;;89.13;;
2035;SDS011;23642;42.658;23.350;2022-10-28T13:35:49;95.37;;;89.60;;
2035;SDS011;23642;42.658;23.350;2022-10-28T13:38:18;93.27;;;87.50;;
2035;SDS011;23642;42.658;23.350;2022-10-28T13:49:26;93.60;;;87.77;;
2035;SDS011;23642;42.658;23.350;2022-10-28T13:52:00;95.20;;;89.30;;
2035;SDS011;23642;42.658;23.350;2022-10-28T13:54:31;95.30;;;88.93;;
2035;SDS011;23642;42.658;23.350;2022-10-28T13:57:18;96.63;;;90.63;;
2035;SDS011;23642;42.658;23.350;2022-10-28T13:59:52;96.40;;;90.30;;
2035;SDS011;23642;42.658;23.350;2022-10-28T14:05:50;97.73;;;90.73;;
2035;SDS011;23642;42.658;23.350;2022-10-28T14:08:20;95.90;;;90.00;;
2035;SDS011;23642;42.658;23.350;2022-10-28T14:11:00;92.97;;;87.03;;
2035;SDS011;23642;42.658;23.350;2022-10-28T14:13:29;95.23;;;89.20;;
2035;SDS011;23642;42.658;23.350;2022-10-28T14:16:16;92.30;;;86.60;;
2035;SDS011;23642;42.658;23.350;2022-10-28T14:18:56;96.93;;;90.57;;
2035;SDS011;23642;42.658;23.350;2022-10-28T14:21:37;95.43;;;89.10;;
2035;SDS011;23642;42.658;23.350;2022-10-28T14:24:10;93.73;;;87.73;;
2035;SDS011;23642;42.658;23.350;2022-10-28T14:36:27;92.83;;;85.93;;
2035;SDS011;23642;42.658;23.350;2022-10-28T14:39:11;94.07;;;88.27;;
2035;SDS011;23642;42.658;23.350;2022-10-28T14:42:00;93.30;;;87.30;;
2035;SDS011;23642;42.658;23.350;2022-10-28T14:44:45;93.60;;;87.53;;
2035;SDS011;23642;42.658;23.350;2022-10-28T14:47:35;96.00;;;89.70;;
2035;SDS011;23642;42.658;23.350;2022-10-28T14:50:21;99.60;;;92.80;;
2035;SDS011;23642;42.658;23.350;2022-10-28T14:52:52;96.07;;;90.10;;
2035;SDS011;23642;42.658;23.350;2022-10-28T14:55:21;95.00;;;89.00;;
2035;SDS011;23642;42.658;23.350;2022-10-28T14:57:52;95.60;;;89.10;;
2035;SDS011;23642;42.658;23.350;2022-10-28T15:00:19;96.73;;;90.30;;
2035;SDS011;23642;42.658;23.350;2022-10-28T15:02:50;97.13;;;90.60;;
2035;SDS011;23642;42.658;23.350;2022-10-28T15:05:17;99.00;;;92.40;;
2035;SDS011;23642;42.658;23.350;2022-10-28T15:07:46;96.83;;;90.37;;
2035;SDS011;23642;42.658;23.350;2022-10-28T15:10:15;100.13;;;93.37;;
2035;SDS011;23642;42.658;23.350;2022-10-28T15:12:46;97.00;;;90.57;;
2035;SDS011;23642;42.658;23.350;2022-10-28T15:15:14;104.33;;;96.37;;
2035;SDS011;23642;42.658;23.350;2022-10-28T15:17:42;102.10;;;93.80;;
2035;SDS011;23642;42.658;23.350;2022-10-28T15:20:11;101.80;;;94.30;;
2035;SDS011;23642;42.658;23.350;2022-10-28T15:22:44;104.77;;;97.00;;
2035;SDS011;23642;42.658;23.350;2022-10-28T15:25:11;105.13;;;97.33;;
2035;SDS011;23642;42.658;23.350;2022-10-28T15:27:41;103.93;;;97.00;;
2035;SDS011;23642;42.658;23.350;2022-10-28T15:30:12;104.07;;;96.90;;